sensor_id;sensor_type;location;lat;lon;timestamp;temperature;humidity
30572;DHT22;17348;50.948;10.696;2023-05-08T00:00:43;8.40;99.90
30572;DHT22;17348;50.948;10.696;2023-05-08T00:03:46;8.30;99.90
30572;DHT22;17348;50.948;10.696;2023-05-08T00:06:48;8.40;99.90
30572;DHT22;17348;50.948;10.696;2023-05-08T00:09:51;8.30;99.90
30572;DHT22;17348;50.948;10.696;2023-05-08T00:12:56;8.40;99.90
30572;DHT22;17348;50.948;10.696;2023-05-08T00:15:59;8.30;99.90
30572;DHT22;17348;50.948;10.696;2023-05-08T00:19:02;8.20;99.90
30572;DHT22;17348;50.948;10.696;2023-05-08T00:22:05;8.20;99.90
30572;DHT22;17348;50.948;10.696;2023-05-08T00:25:07;8.10;99.90
30572;DHT22;17348;50.948;10.696;2023-05-08T00:28:11;8.10;99.90
30572;DHT22;17348;50.948;10.696;2023-05-08T00:31:13;8.10;99.90
30572;DHT22;17348;50.948;10.696;2023-05-08T00:34:17;8.10;99.90
30572;DHT22;17348;50.948;10.696;2023-05-08T00:37:19;8.10;99.90
30572;DHT22;17348;50.948;10.696;2023-05-08T00:40:22;8.00;99.90
30572;DHT22;17348;50.948;10.696;2023-05-08T00:43:24;8.10;99.90
30572;DHT22;17348;50.948;10.696;2023-05-08T00:46:28;8.00;99.90
30572;DHT22;17348;50.948;10.696;2023-05-08T00:49:32;8.00;99.90
30572;DHT22;17348;50.948;10.696;2023-05-08T00:52:36;8.00;99.90
30572;DHT22;17348;50.948;10.696;2023-05-08T00:55:38;8.00;99.90
30572;DHT22;17348;50.948;10.696;2023-05-08T00:58:42;8.00;99.90
30572;DHT22;17348;50.948;10.696;2023-05-08T01:01:46;8.00;99.90
30572;DHT22;17348;50.948;10.696;2023-05-08T01:04:52;8.00;99.90
30572;DHT22;17348;50.948;10.696;2023-05-08T01:07:54;8.00;99.90
30572;DHT22;17348;50.948;10.696;2023-05-08T01:11:04;8.00;99.90
30572;DHT22;17348;50.948;10.696;2023-05-08T01:14:12;8.00;99.90
30572;DHT22;17348;50.948;10.696;2023-05-08T01:17:29;8.00;99.90
30572;DHT22;17348;50.948;10.696;2023-05-08T01:20:44;8.10;99.90
30572;DHT22;17348;50.948;10.696;2023-05-08T01:24:11;8.10;99.90
30572;DHT22;17348;50.948;10.696;2023-05-08T01:27:44;8.10;99.90
30572;DHT22;17348;50.948;10.696;2023-05-08T01:30:58;8.20;99.90
30572;DHT22;17348;50.948;10.696;2023-05-08T01:34:08;8.20;99.90
30572;DHT22;17348;50.948;10.696;2023-05-08T01:37:14;8.20;99.90
30572;DHT22;17348;50.948;10.696;2023-05-08T01:40:25;8.20;99.90
30572;DHT22;17348;50.948;10.696;2023-05-08T01:43:30;8.10;99.90
30572;DHT22;17348;50.948;10.696;2023-05-08T01:46:34;8.20;99.90
30572;DHT22;17348;50.948;10.696;2023-05-08T01:49:39;8.20;99.90
30572;DHT22;17348;50.948;10.696;2023-05-08T01:52:45;8.20;99.90
30572;DHT22;17348;50.948;10.696;2023-05-08T01:55:53;8.20;99.90
30572;DHT22;17348;50.948;10.696;2023-05-08T01:58:58;8.20;99.90
30572;DHT22;17348;50.948;10.696;2023-05-08T02:02:01;8.20;99.90
30572;DHT22;17348;50.948;10.696;2023-05-08T02:05:07;8.20;99.90
30572;DHT22;17348;50.948;10.696;2023-05-08T02:08:14;8.20;99.90
30572;DHT22;17348;50.948;10.696;2023-05-08T02:11:17;8.30;99.90
30572;DHT22;17348;50.948;10.696;2023-05-08T02:14:22;8.20;99.90
30572;DHT22;17348;50.948;10.696;2023-05-08T02:17:27;8.20;99.90
30572;DHT22;17348;50.948;10.696;2023-05-08T02:20:32;8.10;99.90
30572;DHT22;17348;50.948;10.696;2023-05-08T02:23:41;8.10;99.90
30572;DHT22;17348;50.948;10.696;2023-05-08T02:26:45;8.10;99.90
30572;DHT22;17348;50.948;10.696;2023-05-08T02:29:49;8.10;99.90
30572;DHT22;17348;50.948;10.696;2023-05-08T02:32:53;8.10;99.90
30572;DHT22;17348;50.948;10.696;2023-05-08T02:35:59;8.10;99.90
30572;DHT22;17348;50.948;10.696;2023-05-08T02:39:02;8.10;99.90
30572;DHT22;17348;50.948;10.696;2023-05-08T02:42:04;8.10;99.90
30572;DHT22;17348;50.948;10.696;2023-05-08T02:45:08;8.10;99.90
30572;DHT22;17348;50.948;10.696;2023-05-08T02:48:17;8.10;99.90
30572;DHT22;17348;50.948;10.696;2023-05-08T02:51:24;8.10;99.90
30572;DHT22;17348;50.948;10.696;2023-05-08T02:54:34;8.10;99.90
30572;DHT22;17348;50.948;10.696;2023-05-08T02:57:42;8.10;99.90
30572;DHT22;17348;50.948;10.696;2023-05-08T03:00:54;8.10;99.90
30572;DHT22;17348;50.948;10.696;2023-05-08T03:04:01;8.20;99.90
30572;DHT22;17348;50.948;10.696;2023-05-08T03:07:07;8.20;99.90
30572;DHT22;17348;50.948;10.696;2023-05-08T03:10:11;8.20;99.90
30572;DHT22;17348;50.948;10.696;2023-05-08T03:13:17;8.30;99.90
30572;DHT22;17348;50.948;10.696;2023-05-08T03:16:23;8.30;99.90
30572;DHT22;17348;50.948;10.696;2023-05-08T03:19:33;8.30;99.90
30572;DHT22;17348;50.948;10.696;2023-05-08T03:22:38;8.30;99.90
30572;DHT22;17348;50.948;10.696;2023-05-08T03:25:42;8.30;99.90
30572;DHT22;17348;50.948;10.696;2023-05-08T03:28:47;8.20;99.90
30572;DHT22;17348;50.948;10.696;2023-05-08T03:31:52;8.20;99.90
30572;DHT22;17348;50.948;10.696;2023-05-08T03:34:58;8.20;99.90
30572;DHT22;17348;50.948;10.696;2023-05-08T03:38:01;8.10;99.90
30572;DHT22;17348;50.948;10.696;2023-05-08T03:41:04;8.20;99.90
30572;DHT22;17348;50.948;10.696;2023-05-08T03:44:07;8.20;99.90
30572;DHT22;17348;50.948;10.696;2023-05-08T03:47:09;8.20;99.90
30572;DHT22;17348;50.948;10.696;2023-05-08T03:50:12;8.10;99.90
30572;DHT22;17348;50.948;10.696;2023-05-08T03:53:16;8.10;99.90
30572;DHT22;17348;50.948;10.696;2023-05-08T03:56:18;8.10;99.90
30572;DHT22;17348;50.948;10.696;2023-05-08T03:59:35;8.10;99.90
30572;DHT22;17348;50.948;10.696;2023-05-08T04:02:45;8.20;99.90
30572;DHT22;17348;50.948;10.696;2023-05-08T04:05:53;8.20;99.90
30572;DHT22;17348;50.948;10.696;2023-05-08T04:09:07;8.20;99.90
30572;DHT22;17348;50.948;10.696;2023-05-08T04:12:14;8.30;99.90
30572;DHT22;17348;50.948;10.696;2023-05-08T04:15:20;8.30;99.90
30572;DHT22;17348;50.948;10.696;2023-05-08T04:18:27;8.30;99.90
30572;DHT22;17348;50.948;10.696;2023-05-08T04:21:33;8.40;99.90
30572;DHT22;17348;50.948;10.696;2023-05-08T04:24:42;8.40;99.90
30572;DHT22;17348;50.948;10.696;2023-05-08T04:27:45;8.40;99.90
30572;DHT22;17348;50.948;10.696;2023-05-08T04:30:48;8.50;99.90
30572;DHT22;17348;50.948;10.696;2023-05-08T04:33:51;8.60;99.90
30572;DHT22;17348;50.948;10.696;2023-05-08T04:36:58;8.60;99.90
30572;DHT22;17348;50.948;10.696;2023-05-08T04:40:02;8.60;99.90
30572;DHT22;17348;50.948;10.696;2023-05-08T04:43:05;8.70;99.90
30572;DHT22;17348;50.948;10.696;2023-05-08T04:46:08;8.70;99.90
30572;DHT22;17348;50.948;10.696;2023-05-08T04:49:10;8.80;99.90
30572;DHT22;17348;50.948;10.696;2023-05-08T04:52:13;8.80;99.90
30572;DHT22;17348;50.948;10.696;2023-05-08T04:55:16;8.70;99.90
30572;DHT22;17348;50.948;10.696;2023-05-08T04:58:19;8.80;99.90
30572;DHT22;17348;50.948;10.696;2023-05-08T05:01:21;8.80;99.90
30572;DHT22;17348;50.948;10.696;2023-05-08T05:04:25;8.80;99.90
30572;DHT22;17348;50.948;10.696;2023-05-08T05:07:28;8.80;99.90
30572;DHT22;17348;50.948;10.696;2023-05-08T05:10:31;8.80;99.90
30572;DHT22;17348;50.948;10.696;2023-05-08T05:13:34;8.80;99.90
30572;DHT22;17348;50.948;10.696;2023-05-08T05:16:36;8.90;99.90
30572;DHT22;17348;50.948;10.696;2023-05-08T05:19:38;8.90;99.90
30572;DHT22;17348;50.948;10.696;2023-05-08T05:22:40;9.00;99.90
30572;DHT22;17348;50.948;10.696;2023-05-08T05:25:44;9.10;99.90
30572;DHT22;17348;50.948;10.696;2023-05-08T05:28:46;9.10;99.90
30572;DHT22;17348;50.948;10.696;2023-05-08T05:31:49;9.20;99.90
30572;DHT22;17348;50.948;10.696;2023-05-08T05:34:51;9.20;99.90
30572;DHT22;17348;50.948;10.696;2023-05-08T05:37:54;9.30;99.90
30572;DHT22;17348;50.948;10.696;2023-05-08T05:40:58;9.40;99.90
30572;DHT22;17348;50.948;10.696;2023-05-08T05:44:00;9.40;99.90
30572;DHT22;17348;50.948;10.696;2023-05-08T05:47:03;9.40;99.90
30572;DHT22;17348;50.948;10.696;2023-05-08T05:50:06;9.50;99.90
30572;DHT22;17348;50.948;10.696;2023-05-08T05:53:09;9.50;99.90
30572;DHT22;17348;50.948;10.696;2023-05-08T05:56:13;9.50;99.90
30572;DHT22;17348;50.948;10.696;2023-05-08T05:59:15;9.60;99.90
30572;DHT22;17348;50.948;10.696;2023-05-08T06:02:18;9.60;99.90
30572;DHT22;17348;50.948;10.696;2023-05-08T06:05:21;9.60;99.90
30572;DHT22;17348;50.948;10.696;2023-05-08T06:08:23;9.50;99.90
30572;DHT22;17348;50.948;10.696;2023-05-08T06:11:27;9.60;99.90
30572;DHT22;17348;50.948;10.696;2023-05-08T06:14:30;9.60;99.90
30572;DHT22;17348;50.948;10.696;2023-05-08T06:17:32;9.60;99.90
30572;DHT22;17348;50.948;10.696;2023-05-08T06:20:36;9.70;99.90
30572;DHT22;17348;50.948;10.696;2023-05-08T06:23:38;9.90;99.90
30572;DHT22;17348;50.948;10.696;2023-05-08T06:26:42;10.00;99.90
30572;DHT22;17348;50.948;10.696;2023-05-08T06:29:44;10.10;99.90
30572;DHT22;17348;50.948;10.696;2023-05-08T06:32:47;10.10;99.90
30572;DHT22;17348;50.948;10.696;2023-05-08T06:35:49;10.10;99.90
30572;DHT22;17348;50.948;10.696;2023-05-08T06:38:51;10.20;99.90
30572;DHT22;17348;50.948;10.696;2023-05-08T06:41:55;10.30;99.90
30572;DHT22;17348;50.948;10.696;2023-05-08T06:44:57;10.40;99.90
30572;DHT22;17348;50.948;10.696;2023-05-08T06:48:00;10.50;99.90
30572;DHT22;17348;50.948;10.696;2023-05-08T06:51:02;10.50;99.90
30572;DHT22;17348;50.948;10.696;2023-05-08T06:54:05;10.60;99.90
30572;DHT22;17348;50.948;10.696;2023-05-08T06:57:09;10.70;99.90
30572;DHT22;17348;50.948;10.696;2023-05-08T07:00:14;10.80;99.90
30572;DHT22;17348;50.948;10.696;2023-05-08T07:03:16;11.10;99.90
30572;DHT22;17348;50.948;10.696;2023-05-08T07:06:18;11.30;99.90
30572;DHT22;17348;50.948;10.696;2023-05-08T07:09:21;11.40;99.90
30572;DHT22;17348;50.948;10.696;2023-05-08T07:12:24;11.70;99.90
30572;DHT22;17348;50.948;10.696;2023-05-08T07:15:27;12.20;99.90
30572;DHT22;17348;50.948;10.696;2023-05-08T07:18:29;13.10;99.90
30572;DHT22;17348;50.948;10.696;2023-05-08T07:21:31;13.40;99.90
30572;DHT22;17348;50.948;10.696;2023-05-08T07:24:34;13.80;99.90
30572;DHT22;17348;50.948;10.696;2023-05-08T07:27:38;13.80;99.90
30572;DHT22;17348;50.948;10.696;2023-05-08T07:30:40;13.90;99.90
30572;DHT22;17348;50.948;10.696;2023-05-08T07:33:42;13.80;99.90
30572;DHT22;17348;50.948;10.696;2023-05-08T07:36:46;14.20;99.90
30572;DHT22;17348;50.948;10.696;2023-05-08T07:39:49;14.30;99.90
30572;DHT22;17348;50.948;10.696;2023-05-08T07:42:52;14.20;99.90
30572;DHT22;17348;50.948;10.696;2023-05-08T07:45:55;14.20;99.90
30572;DHT22;17348;50.948;10.696;2023-05-08T07:48:57;14.40;99.90
30572;DHT22;17348;50.948;10.696;2023-05-08T07:52:00;14.60;99.90
30572;DHT22;17348;50.948;10.696;2023-05-08T07:55:02;14.50;99.90
30572;DHT22;17348;50.948;10.696;2023-05-08T07:58:06;14.90;99.90
30572;DHT22;17348;50.948;10.696;2023-05-08T08:01:09;14.80;99.90
30572;DHT22;17348;50.948;10.696;2023-05-08T08:04:11;14.70;99.90
30572;DHT22;17348;50.948;10.696;2023-05-08T08:07:14;14.60;99.90
30572;DHT22;17348;50.948;10.696;2023-05-08T08:10:17;14.50;99.90
30572;DHT22;17348;50.948;10.696;2023-05-08T08:13:21;14.50;99.90
30572;DHT22;17348;50.948;10.696;2023-05-08T08:16:23;14.50;99.90
30572;DHT22;17348;50.948;10.696;2023-05-08T08:19:27;14.60;99.90
30572;DHT22;17348;50.948;10.696;2023-05-08T08:22:29;14.70;99.90
30572;DHT22;17348;50.948;10.696;2023-05-08T08:25:31;14.70;99.90
30572;DHT22;17348;50.948;10.696;2023-05-08T08:28:35;14.80;99.90
30572;DHT22;17348;50.948;10.696;2023-05-08T08:31:37;14.80;99.90
30572;DHT22;17348;50.948;10.696;2023-05-08T08:34:40;15.00;99.90
30572;DHT22;17348;50.948;10.696;2023-05-08T08:37:48;15.00;99.90
30572;DHT22;17348;50.948;10.696;2023-05-08T08:40:51;15.00;99.90
30572;DHT22;17348;50.948;10.696;2023-05-08T08:43:55;15.00;99.90
30572;DHT22;17348;50.948;10.696;2023-05-08T08:46:58;15.10;99.90
30572;DHT22;17348;50.948;10.696;2023-05-08T08:50:02;15.20;99.90
30572;DHT22;17348;50.948;10.696;2023-05-08T08:53:09;15.30;99.90
30572;DHT22;17348;50.948;10.696;2023-05-08T08:56:13;15.40;99.90
30572;DHT22;17348;50.948;10.696;2023-05-08T08:59:18;15.50;99.90
30572;DHT22;17348;50.948;10.696;2023-05-08T09:02:21;15.40;99.90
30572;DHT22;17348;50.948;10.696;2023-05-08T09:05:24;15.40;99.90
30572;DHT22;17348;50.948;10.696;2023-05-08T09:08:27;15.40;99.90
30572;DHT22;17348;50.948;10.696;2023-05-08T09:11:29;15.30;99.90
30572;DHT22;17348;50.948;10.696;2023-05-08T09:14:33;15.30;99.90
30572;DHT22;17348;50.948;10.696;2023-05-08T09:17:36;15.30;99.90
30572;DHT22;17348;50.948;10.696;2023-05-08T09:20:40;15.40;99.90
30572;DHT22;17348;50.948;10.696;2023-05-08T09:23:55;15.40;99.90
30572;DHT22;17348;50.948;10.696;2023-05-08T09:26:57;15.60;99.90
30572;DHT22;17348;50.948;10.696;2023-05-08T09:30:03;15.70;99.90
30572;DHT22;17348;50.948;10.696;2023-05-08T09:33:05;15.80;99.90
30572;DHT22;17348;50.948;10.696;2023-05-08T09:36:24;15.90;99.90
30572;DHT22;17348;50.948;10.696;2023-05-08T09:39:27;16.10;99.90
30572;DHT22;17348;50.948;10.696;2023-05-08T09:42:36;16.20;99.90
30572;DHT22;17348;50.948;10.696;2023-05-08T09:45:40;16.30;99.90
30572;DHT22;17348;50.948;10.696;2023-05-08T09:48:44;16.40;99.90
30572;DHT22;17348;50.948;10.696;2023-05-08T09:51:51;16.60;99.90
30572;DHT22;17348;50.948;10.696;2023-05-08T09:54:57;16.70;99.90
30572;DHT22;17348;50.948;10.696;2023-05-08T09:58:00;17.10;99.90
30572;DHT22;17348;50.948;10.696;2023-05-08T10:01:04;17.30;99.90
30572;DHT22;17348;50.948;10.696;2023-05-08T10:04:07;17.50;99.90
30572;DHT22;17348;50.948;10.696;2023-05-08T10:07:09;17.60;99.90
30572;DHT22;17348;50.948;10.696;2023-05-08T10:10:11;17.60;99.90
30572;DHT22;17348;50.948;10.696;2023-05-08T10:13:14;17.70;99.90
30572;DHT22;17348;50.948;10.696;2023-05-08T10:16:18;17.80;99.90
30572;DHT22;17348;50.948;10.696;2023-05-08T10:19:22;17.90;99.90
30572;DHT22;17348;50.948;10.696;2023-05-08T10:22:27;18.00;99.90
30572;DHT22;17348;50.948;10.696;2023-05-08T10:25:31;18.10;99.90
30572;DHT22;17348;50.948;10.696;2023-05-08T10:28:41;18.20;99.90
30572;DHT22;17348;50.948;10.696;2023-05-08T10:31:46;18.20;99.90
30572;DHT22;17348;50.948;10.696;2023-05-08T10:34:52;18.20;99.90
30572;DHT22;17348;50.948;10.696;2023-05-08T10:37:57;18.40;99.90
30572;DHT22;17348;50.948;10.696;2023-05-08T10:41:05;18.60;99.90
30572;DHT22;17348;50.948;10.696;2023-05-08T10:44:18;18.80;99.90
30572;DHT22;17348;50.948;10.696;2023-05-08T10:47:29;19.00;99.90
30572;DHT22;17348;50.948;10.696;2023-05-08T10:50:43;19.20;99.90
30572;DHT22;17348;50.948;10.696;2023-05-08T10:53:56;19.50;99.90
30572;DHT22;17348;50.948;10.696;2023-05-08T10:57:09;19.50;99.90
30572;DHT22;17348;50.948;10.696;2023-05-08T11:00:12;19.70;99.90
30572;DHT22;17348;50.948;10.696;2023-05-08T11:03:17;19.70;99.90
30572;DHT22;17348;50.948;10.696;2023-05-08T11:06:43;19.70;99.90
30572;DHT22;17348;50.948;10.696;2023-05-08T11:09:47;19.70;99.90
30572;DHT22;17348;50.948;10.696;2023-05-08T11:12:58;19.60;99.90
30572;DHT22;17348;50.948;10.696;2023-05-08T11:16:02;19.50;99.90
30572;DHT22;17348;50.948;10.696;2023-05-08T11:19:18;19.50;99.90
30572;DHT22;17348;50.948;10.696;2023-05-08T11:22:31;19.50;99.90
30572;DHT22;17348;50.948;10.696;2023-05-08T11:25:45;19.30;99.90
30572;DHT22;17348;50.948;10.696;2023-05-08T11:28:58;19.20;99.90
30572;DHT22;17348;50.948;10.696;2023-05-08T11:32:01;19.30;99.90
30572;DHT22;17348;50.948;10.696;2023-05-08T11:35:12;19.20;99.90
30572;DHT22;17348;50.948;10.696;2023-05-08T11:38:20;19.10;99.90
30572;DHT22;17348;50.948;10.696;2023-05-08T11:41:25;19.10;99.90
30572;DHT22;17348;50.948;10.696;2023-05-08T11:44:28;19.10;99.90
30572;DHT22;17348;50.948;10.696;2023-05-08T11:47:36;19.30;99.90
30572;DHT22;17348;50.948;10.696;2023-05-08T11:50:41;19.40;99.90
30572;DHT22;17348;50.948;10.696;2023-05-08T11:53:44;19.60;99.90
30572;DHT22;17348;50.948;10.696;2023-05-08T11:56:47;19.80;99.90
30572;DHT22;17348;50.948;10.696;2023-05-08T11:59:55;19.80;99.90
30572;DHT22;17348;50.948;10.696;2023-05-08T12:03:06;19.90;99.90
30572;DHT22;17348;50.948;10.696;2023-05-08T12:06:17;20.10;99.90
30572;DHT22;17348;50.948;10.696;2023-05-08T12:09:24;20.20;99.90
30572;DHT22;17348;50.948;10.696;2023-05-08T12:12:35;20.10;99.90
30572;DHT22;17348;50.948;10.696;2023-05-08T12:15:38;20.10;99.90
30572;DHT22;17348;50.948;10.696;2023-05-08T12:18:40;20.00;99.90
30572;DHT22;17348;50.948;10.696;2023-05-08T12:21:48;20.00;99.90
30572;DHT22;17348;50.948;10.696;2023-05-08T12:24:51;19.80;99.90
30572;DHT22;17348;50.948;10.696;2023-05-08T12:27:53;20.00;99.90
30572;DHT22;17348;50.948;10.696;2023-05-08T12:30:56;20.10;99.90
30572;DHT22;17348;50.948;10.696;2023-05-08T12:33:59;20.20;99.90
30572;DHT22;17348;50.948;10.696;2023-05-08T12:37:04;20.30;99.90
30572;DHT22;17348;50.948;10.696;2023-05-08T12:40:07;20.50;99.90
30572;DHT22;17348;50.948;10.696;2023-05-08T12:43:30;20.50;99.90
30572;DHT22;17348;50.948;10.696;2023-05-08T12:46:33;20.50;99.90
30572;DHT22;17348;50.948;10.696;2023-05-08T12:49:36;20.60;99.90
30572;DHT22;17348;50.948;10.696;2023-05-08T12:52:40;20.70;99.90
30572;DHT22;17348;50.948;10.696;2023-05-08T12:55:54;20.60;99.90
30572;DHT22;17348;50.948;10.696;2023-05-08T12:58:58;20.70;99.90
30572;DHT22;17348;50.948;10.696;2023-05-08T13:02:00;20.60;99.90
30572;DHT22;17348;50.948;10.696;2023-05-08T13:05:03;20.70;99.90
30572;DHT22;17348;50.948;10.696;2023-05-08T13:08:08;20.90;99.90
30572;DHT22;17348;50.948;10.696;2023-05-08T13:11:10;21.10;99.90
30572;DHT22;17348;50.948;10.696;2023-05-08T13:14:13;21.20;99.90
30572;DHT22;17348;50.948;10.696;2023-05-08T13:17:16;21.20;99.90
30572;DHT22;17348;50.948;10.696;2023-05-08T13:20:18;21.30;99.90
30572;DHT22;17348;50.948;10.696;2023-05-08T13:23:22;21.30;99.90
30572;DHT22;17348;50.948;10.696;2023-05-08T13:26:25;21.40;99.90
30572;DHT22;17348;50.948;10.696;2023-05-08T13:29:27;21.30;99.90
30572;DHT22;17348;50.948;10.696;2023-05-08T13:32:30;21.30;99.90
30572;DHT22;17348;50.948;10.696;2023-05-08T13:35:33;21.20;99.90
30572;DHT22;17348;50.948;10.696;2023-05-08T13:38:37;21.10;99.90
30572;DHT22;17348;50.948;10.696;2023-05-08T13:41:39;21.00;99.90
30572;DHT22;17348;50.948;10.696;2023-05-08T13:44:41;20.90;99.90
30572;DHT22;17348;50.948;10.696;2023-05-08T13:47:44;20.80;99.90
30572;DHT22;17348;50.948;10.696;2023-05-08T13:50:47;20.70;99.90
30572;DHT22;17348;50.948;10.696;2023-05-08T13:53:50;20.60;99.90
30572;DHT22;17348;50.948;10.696;2023-05-08T13:56:53;20.60;99.90
30572;DHT22;17348;50.948;10.696;2023-05-08T13:59:55;20.70;99.90
30572;DHT22;17348;50.948;10.696;2023-05-08T14:02:57;20.70;99.90
30572;DHT22;17348;50.948;10.696;2023-05-08T14:06:00;20.80;99.90
30572;DHT22;17348;50.948;10.696;2023-05-08T14:09:04;20.90;99.90
30572;DHT22;17348;50.948;10.696;2023-05-08T14:12:06;20.90;99.90
30572;DHT22;17348;50.948;10.696;2023-05-08T14:15:09;20.80;99.90
30572;DHT22;17348;50.948;10.696;2023-05-08T14:18:12;20.80;99.90
30572;DHT22;17348;50.948;10.696;2023-05-08T14:21:14;20.80;99.90
30572;DHT22;17348;50.948;10.696;2023-05-08T14:24:18;20.90;99.90
30572;DHT22;17348;50.948;10.696;2023-05-08T14:27:20;20.80;99.90
30572;DHT22;17348;50.948;10.696;2023-05-08T14:30:23;20.70;99.90
30572;DHT22;17348;50.948;10.696;2023-05-08T14:33:26;20.50;99.90
30572;DHT22;17348;50.948;10.696;2023-05-08T14:36:28;20.50;99.90
30572;DHT22;17348;50.948;10.696;2023-05-08T14:39:32;20.40;99.90
30572;DHT22;17348;50.948;10.696;2023-05-08T14:42:34;20.40;99.90
30572;DHT22;17348;50.948;10.696;2023-05-08T14:45:38;20.30;99.90
30572;DHT22;17348;50.948;10.696;2023-05-08T14:48:42;20.30;99.90
30572;DHT22;17348;50.948;10.696;2023-05-08T14:51:45;20.30;99.90
30572;DHT22;17348;50.948;10.696;2023-05-08T14:54:52;20.30;99.90
30572;DHT22;17348;50.948;10.696;2023-05-08T14:57:56;20.30;99.90
30572;DHT22;17348;50.948;10.696;2023-05-08T15:00:59;20.30;99.90
30572;DHT22;17348;50.948;10.696;2023-05-08T15:04:03;20.30;99.90
30572;DHT22;17348;50.948;10.696;2023-05-08T15:07:06;20.30;99.90
30572;DHT22;17348;50.948;10.696;2023-05-08T15:10:10;20.30;99.90
30572;DHT22;17348;50.948;10.696;2023-05-08T15:13:12;20.40;99.90
30572;DHT22;17348;50.948;10.696;2023-05-08T15:16:14;20.50;99.90
30572;DHT22;17348;50.948;10.696;2023-05-08T15:19:17;20.40;99.90
30572;DHT22;17348;50.948;10.696;2023-05-08T15:22:19;20.40;99.90
30572;DHT22;17348;50.948;10.696;2023-05-08T15:25:23;20.40;99.90
30572;DHT22;17348;50.948;10.696;2023-05-08T15:28:26;20.30;99.90
30572;DHT22;17348;50.948;10.696;2023-05-08T15:31:28;20.20;99.90
30572;DHT22;17348;50.948;10.696;2023-05-08T15:34:33;20.00;99.90
30572;DHT22;17348;50.948;10.696;2023-05-08T15:37:36;19.80;99.90
30572;DHT22;17348;50.948;10.696;2023-05-08T15:40:40;19.60;99.90
30572;DHT22;17348;50.948;10.696;2023-05-08T15:43:42;19.60;99.90
30572;DHT22;17348;50.948;10.696;2023-05-08T15:46:46;19.60;99.90
30572;DHT22;17348;50.948;10.696;2023-05-08T15:49:48;19.50;99.90
30572;DHT22;17348;50.948;10.696;2023-05-08T15:52:50;19.50;99.90
30572;DHT22;17348;50.948;10.696;2023-05-08T15:55:54;19.60;99.90
30572;DHT22;17348;50.948;10.696;2023-05-08T15:58:56;19.70;99.90
30572;DHT22;17348;50.948;10.696;2023-05-08T16:01:59;19.80;99.90
30572;DHT22;17348;50.948;10.696;2023-05-08T16:05:01;19.80;99.90
30572;DHT22;17348;50.948;10.696;2023-05-08T16:08:06;19.80;99.90
30572;DHT22;17348;50.948;10.696;2023-05-08T16:11:13;19.80;99.90
30572;DHT22;17348;50.948;10.696;2023-05-08T16:14:15;19.80;99.90
30572;DHT22;17348;50.948;10.696;2023-05-08T16:17:18;20.00;99.90
30572;DHT22;17348;50.948;10.696;2023-05-08T16:20:20;20.10;99.90
30572;DHT22;17348;50.948;10.696;2023-05-08T16:23:23;20.10;99.90
30572;DHT22;17348;50.948;10.696;2023-05-08T16:26:26;20.10;99.90
30572;DHT22;17348;50.948;10.696;2023-05-08T16:29:32;20.10;99.90
30572;DHT22;17348;50.948;10.696;2023-05-08T16:32:34;20.20;99.90
30572;DHT22;17348;50.948;10.696;2023-05-08T16:35:38;20.20;99.90
30572;DHT22;17348;50.948;10.696;2023-05-08T16:38:40;20.10;99.90
30572;DHT22;17348;50.948;10.696;2023-05-08T16:41:44;20.10;99.90
30572;DHT22;17348;50.948;10.696;2023-05-08T16:44:46;20.00;99.90
30572;DHT22;17348;50.948;10.696;2023-05-08T16:47:48;19.90;99.90
30572;DHT22;17348;50.948;10.696;2023-05-08T16:50:51;19.70;99.90
30572;DHT22;17348;50.948;10.696;2023-05-08T16:53:53;19.60;99.90
30572;DHT22;17348;50.948;10.696;2023-05-08T16:56:58;19.40;99.90
30572;DHT22;17348;50.948;10.696;2023-05-08T17:00:00;19.30;99.90
30572;DHT22;17348;50.948;10.696;2023-05-08T17:03:04;19.30;99.90
30572;DHT22;17348;50.948;10.696;2023-05-08T17:06:06;19.30;99.90
30572;DHT22;17348;50.948;10.696;2023-05-08T17:09:09;19.40;99.90
30572;DHT22;17348;50.948;10.696;2023-05-08T17:12:12;19.30;99.90
30572;DHT22;17348;50.948;10.696;2023-05-08T17:15:15;19.30;99.90
30572;DHT22;17348;50.948;10.696;2023-05-08T17:18:17;19.30;99.90
30572;DHT22;17348;50.948;10.696;2023-05-08T17:21:20;19.20;99.90
30572;DHT22;17348;50.948;10.696;2023-05-08T17:24:22;19.20;99.90
30572;DHT22;17348;50.948;10.696;2023-05-08T17:27:26;19.10;99.90
30572;DHT22;17348;50.948;10.696;2023-05-08T17:30:28;19.00;99.90
30572;DHT22;17348;50.948;10.696;2023-05-08T17:33:31;18.90;99.90
30572;DHT22;17348;50.948;10.696;2023-05-08T17:36:33;18.80;99.90
30572;DHT22;17348;50.948;10.696;2023-05-08T17:39:36;18.60;99.90
30572;DHT22;17348;50.948;10.696;2023-05-08T17:42:39;18.50;99.90
30572;DHT22;17348;50.948;10.696;2023-05-08T17:45:42;18.50;99.90
30572;DHT22;17348;50.948;10.696;2023-05-08T17:48:45;18.30;99.90
30572;DHT22;17348;50.948;10.696;2023-05-08T17:51:47;18.20;99.90
30572;DHT22;17348;50.948;10.696;2023-05-08T17:54:50;18.10;99.90
30572;DHT22;17348;50.948;10.696;2023-05-08T17:57:53;18.10;99.90
30572;DHT22;17348;50.948;10.696;2023-05-08T18:00:56;18.00;99.90
30572;DHT22;17348;50.948;10.696;2023-05-08T18:03:58;17.90;99.90
30572;DHT22;17348;50.948;10.696;2023-05-08T18:07:02;17.80;99.90
30572;DHT22;17348;50.948;10.696;2023-05-08T18:10:05;17.70;99.90
30572;DHT22;17348;50.948;10.696;2023-05-08T18:13:09;17.70;99.90
30572;DHT22;17348;50.948;10.696;2023-05-08T18:16:13;17.60;99.90
30572;DHT22;17348;50.948;10.696;2023-05-08T18:19:16;17.50;99.90
30572;DHT22;17348;50.948;10.696;2023-05-08T18:22:18;17.40;99.90
30572;DHT22;17348;50.948;10.696;2023-05-08T18:25:20;17.40;99.90
30572;DHT22;17348;50.948;10.696;2023-05-08T18:28:24;17.30;99.90
30572;DHT22;17348;50.948;10.696;2023-05-08T18:31:26;17.10;99.90
30572;DHT22;17348;50.948;10.696;2023-05-08T18:34:29;17.00;99.90
30572;DHT22;17348;50.948;10.696;2023-05-08T18:37:34;16.90;99.90
30572;DHT22;17348;50.948;10.696;2023-05-08T18:40:37;16.80;99.90
30572;DHT22;17348;50.948;10.696;2023-05-08T18:43:41;16.70;99.90
30572;DHT22;17348;50.948;10.696;2023-05-08T18:46:43;16.60;99.90
30572;DHT22;17348;50.948;10.696;2023-05-08T18:49:45;16.50;99.90
30572;DHT22;17348;50.948;10.696;2023-05-08T18:52:49;16.40;99.90
30572;DHT22;17348;50.948;10.696;2023-05-08T18:55:52;16.30;99.90
30572;DHT22;17348;50.948;10.696;2023-05-08T18:58:55;16.20;99.90
30572;DHT22;17348;50.948;10.696;2023-05-08T19:01:59;16.10;99.90
30572;DHT22;17348;50.948;10.696;2023-05-08T19:05:02;16.10;99.90
30572;DHT22;17348;50.948;10.696;2023-05-08T19:08:05;15.90;99.90
30572;DHT22;17348;50.948;10.696;2023-05-08T19:11:07;15.90;99.90